sensor_id;sensor_type;location;lat;lon;timestamp;P1;durP1;ratioP1;P2;durP2;ratioP2
20456;SDS011;10387;51.102;6.848;2023-04-06T00:01:46;18.50;;;13.90;;
20456;SDS011;10387;51.102;6.848;2023-04-06T00:04:12;17.77;;;14.00;;
20456;SDS011;10387;51.102;6.848;2023-04-06T00:06:38;17.80;;;14.10;;
20456;SDS011;10387;51.102;6.848;2023-04-06T00:09:05;17.50;;;14.97;;
20456;SDS011;10387;51.102;6.848;2023-04-06T00:11:31;19.80;;;16.03;;
20456;SDS011;10387;51.102;6.848;2023-04-06T00:13:57;18.63;;;14.47;;
20456;SDS011;10387;51.102;6.848;2023-04-06T00:16:23;17.50;;;14.90;;
20456;SDS011;10387;51.102;6.848;2023-04-06T00:18:50;17.90;;;15.33;;
20456;SDS011;10387;51.102;6.848;2023-04-06T00:21:16;19.57;;;15.00;;
20456;SDS011;10387;51.102;6.848;2023-04-06T00:23:42;19.33;;;15.40;;
20456;SDS011;10387;51.102;6.848;2023-04-06T00:26:08;19.60;;;15.33;;
20456;SDS011;10387;51.102;6.848;2023-04-06T00:28:36;20.70;;;15.13;;
20456;SDS011;10387;51.102;6.848;2023-04-06T00:31:02;19.20;;;15.53;;
20456;SDS011;10387;51.102;6.848;2023-04-06T00:33:29;19.40;;;15.43;;
20456;SDS011;10387;51.102;6.848;2023-04-06T00:35:55;19.47;;;14.90;;
20456;SDS011;10387;51.102;6.848;2023-04-06T00:38:21;18.50;;;15.30;;
20456;SDS011;10387;51.102;6.848;2023-04-06T00:40:47;20.63;;;14.87;;
20456;SDS011;10387;51.102;6.848;2023-04-06T00:43:13;18.00;;;14.27;;
20456;SDS011;10387;51.102;6.848;2023-04-06T00:45:40;17.60;;;14.20;;
20456;SDS011;10387;51.102;6.848;2023-04-06T00:48:07;19.00;;;15.10;;
20456;SDS011;10387;51.102;6.848;2023-04-06T00:50:33;18.67;;;14.83;;
20456;SDS011;10387;51.102;6.848;2023-04-06T00:53:00;16.67;;;14.93;;
20456;SDS011;10387;51.102;6.848;2023-04-06T00:55:27;24.93;;;15.50;;
20456;SDS011;10387;51.102;6.848;2023-04-06T00:57:54;20.27;;;15.50;;
20456;SDS011;10387;51.102;6.848;2023-04-06T01:00:20;21.33;;;15.43;;
20456;SDS011;10387;51.102;6.848;2023-04-06T01:02:52;18.80;;;14.63;;
20456;SDS011;10387;51.102;6.848;2023-04-06T01:05:21;19.40;;;15.93;;
20456;SDS011;10387;51.102;6.848;2023-04-06T01:07:51;19.10;;;14.50;;
20456;SDS011;10387;51.102;6.848;2023-04-06T01:10:26;18.67;;;15.47;;
20456;SDS011;10387;51.102;6.848;2023-04-06T01:12:58;17.50;;;14.30;;
20456;SDS011;10387;51.102;6.848;2023-04-06T01:15:42;18.20;;;13.90;;
20456;SDS011;10387;51.102;6.848;2023-04-06T01:18:13;18.77;;;14.37;;
20456;SDS011;10387;51.102;6.848;2023-04-06T01:20:46;18.63;;;14.50;;
20456;SDS011;10387;51.102;6.848;2023-04-06T01:23:13;19.00;;;14.57;;
20456;SDS011;10387;51.102;6.848;2023-04-06T01:25:44;18.67;;;14.67;;
20456;SDS011;10387;51.102;6.848;2023-04-06T01:28:11;17.47;;;14.30;;
20456;SDS011;10387;51.102;6.848;2023-04-06T01:30:50;18.00;;;13.77;;
20456;SDS011;10387;51.102;6.848;2023-04-06T01:33:36;21.67;;;14.90;;
20456;SDS011;10387;51.102;6.848;2023-04-06T01:38:37;20.27;;;14.67;;
20456;SDS011;10387;51.102;6.848;2023-04-06T01:41:04;19.30;;;15.30;;
20456;SDS011;10387;51.102;6.848;2023-04-06T01:43:40;17.63;;;14.13;;
20456;SDS011;10387;51.102;6.848;2023-04-06T01:46:08;21.80;;;16.23;;
20456;SDS011;10387;51.102;6.848;2023-04-06T01:48:38;21.67;;;15.40;;
20456;SDS011;10387;51.102;6.848;2023-04-06T01:51:19;19.80;;;14.90;;
20456;SDS011;10387;51.102;6.848;2023-04-06T01:53:56;18.07;;;14.80;;
20456;SDS011;10387;51.102;6.848;2023-04-06T01:56:31;21.33;;;15.27;;
20456;SDS011;10387;51.102;6.848;2023-04-06T01:59:04;19.50;;;15.30;;
20456;SDS011;10387;51.102;6.848;2023-04-06T02:01:36;19.97;;;14.87;;
20456;SDS011;10387;51.102;6.848;2023-04-06T02:04:03;19.40;;;15.27;;
20456;SDS011;10387;51.102;6.848;2023-04-06T02:06:29;18.63;;;14.43;;
20456;SDS011;10387;51.102;6.848;2023-04-06T02:08:56;16.47;;;14.10;;
20456;SDS011;10387;51.102;6.848;2023-04-06T02:11:22;17.60;;;14.67;;
20456;SDS011;10387;51.102;6.848;2023-04-06T02:13:52;18.70;;;14.43;;
20456;SDS011;10387;51.102;6.848;2023-04-06T02:16:18;19.80;;;15.73;;
20456;SDS011;10387;51.102;6.848;2023-04-06T02:18:45;19.10;;;15.40;;
20456;SDS011;10387;51.102;6.848;2023-04-06T02:21:11;16.30;;;13.73;;
20456;SDS011;10387;51.102;6.848;2023-04-06T02:23:37;17.87;;;15.57;;
20456;SDS011;10387;51.102;6.848;2023-04-06T02:26:04;19.40;;;14.60;;
20456;SDS011;10387;51.102;6.848;2023-04-06T02:28:30;17.03;;;14.53;;
20456;SDS011;10387;51.102;6.848;2023-04-06T02:30:56;17.43;;;14.83;;
20456;SDS011;10387;51.102;6.848;2023-04-06T02:33:25;18.17;;;15.50;;
20456;SDS011;10387;51.102;6.848;2023-04-06T02:35:51;17.33;;;15.47;;
20456;SDS011;10387;51.102;6.848;2023-04-06T02:38:17;19.07;;;15.43;;
20456;SDS011;10387;51.102;6.848;2023-04-06T02:40:44;18.20;;;14.70;;
20456;SDS011;10387;51.102;6.848;2023-04-06T02:43:28;18.83;;;15.13;;
20456;SDS011;10387;51.102;6.848;2023-04-06T02:46:03;17.07;;;15.00;;
20456;SDS011;10387;51.102;6.848;2023-04-06T02:48:33;18.67;;;14.87;;
20456;SDS011;10387;51.102;6.848;2023-04-06T02:51:01;18.73;;;14.03;;
20456;SDS011;10387;51.102;6.848;2023-04-06T02:53:27;17.40;;;14.93;;
20456;SDS011;10387;51.102;6.848;2023-04-06T02:55:53;20.20;;;14.10;;
20456;SDS011;10387;51.102;6.848;2023-04-06T02:58:23;17.13;;;14.77;;
20456;SDS011;10387;51.102;6.848;2023-04-06T03:00:53;17.00;;;14.20;;
20456;SDS011;10387;51.102;6.848;2023-04-06T03:03:19;19.10;;;14.10;;
20456;SDS011;10387;51.102;6.848;2023-04-06T03:05:46;19.43;;;15.10;;
20456;SDS011;10387;51.102;6.848;2023-04-06T03:08:14;18.37;;;14.50;;
20456;SDS011;10387;51.102;6.848;2023-04-06T03:10:44;21.70;;;16.80;;
20456;SDS011;10387;51.102;6.848;2023-04-06T03:13:10;17.10;;;13.33;;
20456;SDS011;10387;51.102;6.848;2023-04-06T03:15:49;19.77;;;14.37;;
20456;SDS011;10387;51.102;6.848;2023-04-06T03:18:20;18.47;;;14.90;;
20456;SDS011;10387;51.102;6.848;2023-04-06T03:20:48;19.03;;;14.40;;
20456;SDS011;10387;51.102;6.848;2023-04-06T03:23:17;18.43;;;14.23;;
20456;SDS011;10387;51.102;6.848;2023-04-06T03:25:46;17.60;;;14.20;;
20456;SDS011;10387;51.102;6.848;2023-04-06T03:28:15;18.07;;;14.27;;
20456;SDS011;10387;51.102;6.848;2023-04-06T03:30:48;20.07;;;14.23;;
20456;SDS011;10387;51.102;6.848;2023-04-06T03:33:20;15.20;;;13.57;;
20456;SDS011;10387;51.102;6.848;2023-04-06T03:35:52;18.13;;;14.67;;
20456;SDS011;10387;51.102;6.848;2023-04-06T03:38:19;17.73;;;13.83;;
20456;SDS011;10387;51.102;6.848;2023-04-06T03:40:45;17.30;;;14.40;;
20456;SDS011;10387;51.102;6.848;2023-04-06T03:43:11;19.00;;;14.73;;
20456;SDS011;10387;51.102;6.848;2023-04-06T03:45:38;18.27;;;13.67;;
20456;SDS011;10387;51.102;6.848;2023-04-06T03:48:05;16.80;;;13.87;;
20456;SDS011;10387;51.102;6.848;2023-04-06T03:50:34;17.60;;;13.63;;
20456;SDS011;10387;51.102;6.848;2023-04-06T03:53:01;17.97;;;13.67;;
20456;SDS011;10387;51.102;6.848;2023-04-06T03:55:30;18.10;;;13.00;;
20456;SDS011;10387;51.102;6.848;2023-04-06T03:57:56;17.30;;;13.30;;
20456;SDS011;10387;51.102;6.848;2023-04-06T04:00:23;16.90;;;13.10;;
20456;SDS011;10387;51.102;6.848;2023-04-06T04:02:49;17.63;;;13.30;;
20456;SDS011;10387;51.102;6.848;2023-04-06T04:05:15;17.80;;;13.47;;
20456;SDS011;10387;51.102;6.848;2023-04-06T04:07:42;18.23;;;14.37;;
20456;SDS011;10387;51.102;6.848;2023-04-06T04:10:10;18.67;;;13.30;;
20456;SDS011;10387;51.102;6.848;2023-04-06T04:12:37;18.67;;;13.27;;
20456;SDS011;10387;51.102;6.848;2023-04-06T04:15:03;15.83;;;13.20;;
20456;SDS011;10387;51.102;6.848;2023-04-06T04:17:30;16.13;;;12.90;;
20456;SDS011;10387;51.102;6.848;2023-04-06T04:19:56;16.33;;;12.53;;
20456;SDS011;10387;51.102;6.848;2023-04-06T04:22:22;17.33;;;13.00;;
20456;SDS011;10387;51.102;6.848;2023-04-06T04:24:48;15.30;;;12.00;;
20456;SDS011;10387;51.102;6.848;2023-04-06T04:27:14;18.07;;;13.30;;
20456;SDS011;10387;51.102;6.848;2023-04-06T04:29:41;16.00;;;12.60;;
20456;SDS011;10387;51.102;6.848;2023-04-06T04:32:10;17.03;;;13.07;;
20456;SDS011;10387;51.102;6.848;2023-04-06T04:34:37;17.43;;;13.33;;
20456;SDS011;10387;51.102;6.848;2023-04-06T04:37:08;16.97;;;13.63;;
20456;SDS011;10387;51.102;6.848;2023-04-06T04:39:45;15.10;;;12.23;;
20456;SDS011;10387;51.102;6.848;2023-04-06T04:42:11;15.50;;;12.63;;
20456;SDS011;10387;51.102;6.848;2023-04-06T04:44:43;15.87;;;12.80;;
20456;SDS011;10387;51.102;6.848;2023-04-06T04:47:10;18.17;;;14.17;;
20456;SDS011;10387;51.102;6.848;2023-04-06T04:49:42;19.30;;;14.33;;
20456;SDS011;10387;51.102;6.848;2023-04-06T04:52:10;18.30;;;14.73;;
20456;SDS011;10387;51.102;6.848;2023-04-06T04:54:48;18.27;;;16.27;;
20456;SDS011;10387;51.102;6.848;2023-04-06T04:57:22;20.70;;;15.53;;
20456;SDS011;10387;51.102;6.848;2023-04-06T04:59:48;18.03;;;14.77;;
20456;SDS011;10387;51.102;6.848;2023-04-06T05:02:17;19.40;;;14.63;;
20456;SDS011;10387;51.102;6.848;2023-04-06T05:04:59;20.60;;;15.43;;
20456;SDS011;10387;51.102;6.848;2023-04-06T05:07:27;16.73;;;14.80;;
20456;SDS011;10387;51.102;6.848;2023-04-06T05:09:55;18.57;;;14.40;;
20456;SDS011;10387;51.102;6.848;2023-04-06T05:12:25;19.60;;;15.30;;
20456;SDS011;10387;51.102;6.848;2023-04-06T05:15:02;16.83;;;14.23;;
20456;SDS011;10387;51.102;6.848;2023-04-06T05:17:28;18.37;;;13.97;;
20456;SDS011;10387;51.102;6.848;2023-04-06T05:19:55;20.73;;;14.60;;
20456;SDS011;10387;51.102;6.848;2023-04-06T05:22:25;17.90;;;14.30;;
20456;SDS011;10387;51.102;6.848;2023-04-06T05:25:02;19.57;;;14.90;;
20456;SDS011;10387;51.102;6.848;2023-04-06T05:27:30;17.97;;;14.43;;
20456;SDS011;10387;51.102;6.848;2023-04-06T05:29:59;17.93;;;13.77;;
20456;SDS011;10387;51.102;6.848;2023-04-06T05:32:27;16.30;;;13.43;;
20456;SDS011;10387;51.102;6.848;2023-04-06T05:34:54;21.07;;;14.13;;
20456;SDS011;10387;51.102;6.848;2023-04-06T05:37:21;17.10;;;14.07;;
20456;SDS011;10387;51.102;6.848;2023-04-06T05:39:47;20.37;;;14.47;;
20456;SDS011;10387;51.102;6.848;2023-04-06T05:42:13;17.67;;;13.63;;
20456;SDS011;10387;51.102;6.848;2023-04-06T05:44:51;17.57;;;14.30;;
20456;SDS011;10387;51.102;6.848;2023-04-06T05:47:18;17.03;;;14.17;;
20456;SDS011;10387;51.102;6.848;2023-04-06T05:49:49;17.63;;;13.77;;
20456;SDS011;10387;51.102;6.848;2023-04-06T05:52:24;15.53;;;13.13;;
20456;SDS011;10387;51.102;6.848;2023-04-06T05:54:50;18.77;;;13.70;;
20456;SDS011;10387;51.102;6.848;2023-04-06T05:57:16;17.23;;;13.37;;
20456;SDS011;10387;51.102;6.848;2023-04-06T05:59:44;17.13;;;13.63;;
20456;SDS011;10387;51.102;6.848;2023-04-06T06:02:13;18.43;;;13.17;;
20456;SDS011;10387;51.102;6.848;2023-04-06T06:04:42;17.90;;;13.47;;
20456;SDS011;10387;51.102;6.848;2023-04-06T06:07:08;16.13;;;13.33;;
20456;SDS011;10387;51.102;6.848;2023-04-06T06:09:43;20.47;;;13.03;;
20456;SDS011;10387;51.102;6.848;2023-04-06T06:12:35;17.00;;;11.83;;
20456;SDS011;10387;51.102;6.848;2023-04-06T06:15:02;14.37;;;11.13;;
20456;SDS011;10387;51.102;6.848;2023-04-06T06:17:32;17.37;;;11.50;;
20456;SDS011;10387;51.102;6.848;2023-04-06T06:19:59;14.67;;;11.43;;
20456;SDS011;10387;51.102;6.848;2023-04-06T06:22:27;12.77;;;10.20;;
20456;SDS011;10387;51.102;6.848;2023-04-06T06:24:53;12.83;;;10.90;;
20456;SDS011;10387;51.102;6.848;2023-04-06T06:27:20;13.93;;;11.47;;
20456;SDS011;10387;51.102;6.848;2023-04-06T06:29:47;12.30;;;10.87;;
20456;SDS011;10387;51.102;6.848;2023-04-06T06:32:13;12.47;;;9.93;;
20456;SDS011;10387;51.102;6.848;2023-04-06T06:34:41;12.63;;;10.13;;
20456;SDS011;10387;51.102;6.848;2023-04-06T06:37:08;12.53;;;10.20;;
20456;SDS011;10387;51.102;6.848;2023-04-06T06:39:36;10.67;;;9.60;;
20456;SDS011;10387;51.102;6.848;2023-04-06T06:42:02;11.90;;;9.70;;
20456;SDS011;10387;51.102;6.848;2023-04-06T06:44:49;12.77;;;9.90;;
20456;SDS011;10387;51.102;6.848;2023-04-06T06:47:16;12.07;;;10.87;;
20456;SDS011;10387;51.102;6.848;2023-04-06T06:49:43;13.43;;;10.20;;
20456;SDS011;10387;51.102;6.848;2023-04-06T06:52:09;12.97;;;9.63;;
20456;SDS011;10387;51.102;6.848;2023-04-06T06:54:35;12.13;;;10.47;;
20456;SDS011;10387;51.102;6.848;2023-04-06T06:57:01;12.77;;;10.23;;
20456;SDS011;10387;51.102;6.848;2023-04-06T06:59:27;11.20;;;9.90;;
20456;SDS011;10387;51.102;6.848;2023-04-06T07:01:54;12.20;;;9.87;;
20456;SDS011;10387;51.102;6.848;2023-04-06T07:04:20;13.60;;;10.80;;
20456;SDS011;10387;51.102;6.848;2023-04-06T07:06:46;10.33;;;9.33;;
20456;SDS011;10387;51.102;6.848;2023-04-06T07:09:12;11.30;;;10.07;;
20456;SDS011;10387;51.102;6.848;2023-04-06T07:11:38;12.07;;;9.60;;
20456;SDS011;10387;51.102;6.848;2023-04-06T07:14:05;11.97;;;10.67;;
20456;SDS011;10387;51.102;6.848;2023-04-06T07:16:31;12.07;;;10.33;;
20456;SDS011;10387;51.102;6.848;2023-04-06T07:18:57;14.37;;;11.33;;
20456;SDS011;10387;51.102;6.848;2023-04-06T07:21:23;12.10;;;10.90;;
20456;SDS011;10387;51.102;6.848;2023-04-06T07:23:50;13.53;;;10.90;;
20456;SDS011;10387;51.102;6.848;2023-04-06T07:26:16;12.10;;;10.90;;
20456;SDS011;10387;51.102;6.848;2023-04-06T07:28:42;12.40;;;10.53;;
20456;SDS011;10387;51.102;6.848;2023-04-06T07:31:10;12.13;;;10.87;;
20456;SDS011;10387;51.102;6.848;2023-04-06T07:33:37;14.57;;;11.13;;
20456;SDS011;10387;51.102;6.848;2023-04-06T07:36:03;12.97;;;11.17;;
20456;SDS011;10387;51.102;6.848;2023-04-06T07:38:29;11.63;;;10.43;;
20456;SDS011;10387;51.102;6.848;2023-04-06T07:40:56;13.23;;;11.13;;
20456;SDS011;10387;51.102;6.848;2023-04-06T07:43:23;12.30;;;10.57;;
20456;SDS011;10387;51.102;6.848;2023-04-06T07:45:49;12.40;;;10.70;;
20456;SDS011;10387;51.102;6.848;2023-04-06T07:48:16;13.20;;;11.37;;
20456;SDS011;10387;51.102;6.848;2023-04-06T07:50:43;15.50;;;11.87;;
20456;SDS011;10387;51.102;6.848;2023-04-06T07:53:09;12.97;;;10.47;;
20456;SDS011;10387;51.102;6.848;2023-04-06T07:55:37;13.00;;;10.50;;
20456;SDS011;10387;51.102;6.848;2023-04-06T07:58:03;12.57;;;10.80;;
20456;SDS011;10387;51.102;6.848;2023-04-06T08:00:29;14.07;;;11.40;;
20456;SDS011;10387;51.102;6.848;2023-04-06T08:02:55;11.23;;;10.03;;
20456;SDS011;10387;51.102;6.848;2023-04-06T08:05:21;12.37;;;11.13;;
20456;SDS011;10387;51.102;6.848;2023-04-06T08:07:48;13.53;;;10.97;;
20456;SDS011;10387;51.102;6.848;2023-04-06T08:10:14;15.27;;;11.63;;
20456;SDS011;10387;51.102;6.848;2023-04-06T08:12:40;12.53;;;11.20;;
20456;SDS011;10387;51.102;6.848;2023-04-06T08:15:06;13.23;;;11.83;;
20456;SDS011;10387;51.102;6.848;2023-04-06T08:17:32;13.80;;;11.30;;
20456;SDS011;10387;51.102;6.848;2023-04-06T08:19:59;13.10;;;11.33;;
20456;SDS011;10387;51.102;6.848;2023-04-06T08:22:25;15.77;;;11.60;;
20456;SDS011;10387;51.102;6.848;2023-04-06T08:24:53;13.43;;;12.03;;
20456;SDS011;10387;51.102;6.848;2023-04-06T08:27:20;13.37;;;11.03;;
20456;SDS011;10387;51.102;6.848;2023-04-06T08:29:46;14.93;;;11.50;;
20456;SDS011;10387;51.102;6.848;2023-04-06T08:32:13;14.43;;;11.63;;
20456;SDS011;10387;51.102;6.848;2023-04-06T08:34:39;12.73;;;11.03;;
20456;SDS011;10387;51.102;6.848;2023-04-06T08:37:06;13.13;;;11.07;;
20456;SDS011;10387;51.102;6.848;2023-04-06T08:39:32;14.67;;;11.40;;
20456;SDS011;10387;51.102;6.848;2023-04-06T08:41:59;13.60;;;11.57;;
20456;SDS011;10387;51.102;6.848;2023-04-06T08:44:25;15.87;;;12.13;;
20456;SDS011;10387;51.102;6.848;2023-04-06T08:46:52;13.93;;;11.67;;
20456;SDS011;10387;51.102;6.848;2023-04-06T08:49:18;14.87;;;12.00;;
20456;SDS011;10387;51.102;6.848;2023-04-06T08:51:44;14.67;;;11.60;;
20456;SDS011;10387;51.102;6.848;2023-04-06T08:54:10;15.53;;;11.97;;
20456;SDS011;10387;51.102;6.848;2023-04-06T08:56:37;17.40;;;12.57;;
20456;SDS011;10387;51.102;6.848;2023-04-06T08:59:03;15.97;;;12.00;;
20456;SDS011;10387;51.102;6.848;2023-04-06T09:01:30;15.30;;;12.17;;
20456;SDS011;10387;51.102;6.848;2023-04-06T09:03:57;15.50;;;12.37;;
20456;SDS011;10387;51.102;6.848;2023-04-06T09:06:24;13.83;;;12.03;;
20456;SDS011;10387;51.102;6.848;2023-04-06T09:08:51;16.90;;;12.57;;
20456;SDS011;10387;51.102;6.848;2023-04-06T09:11:17;15.53;;;12.30;;
20456;SDS011;10387;51.102;6.848;2023-04-06T09:13:54;16.50;;;13.10;;
20456;SDS011;10387;51.102;6.848;2023-04-06T09:16:20;16.73;;;12.37;;
20456;SDS011;10387;51.102;6.848;2023-04-06T09:18:48;16.93;;;12.90;;
20456;SDS011;10387;51.102;6.848;2023-04-06T09:21:20;17.30;;;13.30;;
20456;SDS011;10387;51.102;6.848;2023-04-06T09:23:46;18.97;;;13.77;;
20456;SDS011;10387;51.102;6.848;2023-04-06T09:26:14;16.30;;;12.97;;
20456;SDS011;10387;51.102;6.848;2023-04-06T09:28:41;19.07;;;13.50;;
20456;SDS011;10387;51.102;6.848;2023-04-06T09:31:07;18.37;;;13.27;;
20456;SDS011;10387;51.102;6.848;2023-04-06T09:33:38;17.90;;;13.00;;
20456;SDS011;10387;51.102;6.848;2023-04-06T09:36:05;16.60;;;13.23;;
20456;SDS011;10387;51.102;6.848;2023-04-06T09:38:32;17.27;;;12.57;;
20456;SDS011;10387;51.102;6.848;2023-04-06T09:40:58;16.57;;;13.53;;
20456;SDS011;10387;51.102;6.848;2023-04-06T09:43:27;18.37;;;12.93;;
20456;SDS011;10387;51.102;6.848;2023-04-06T09:45:55;15.67;;;13.20;;
20456;SDS011;10387;51.102;6.848;2023-04-06T09:48:21;16.30;;;12.97;;
20456;SDS011;10387;51.102;6.848;2023-04-06T09:50:52;16.80;;;13.00;;
20456;SDS011;10387;51.102;6.848;2023-04-06T09:53:20;15.73;;;12.97;;
20456;SDS011;10387;51.102;6.848;2023-04-06T09:55:47;16.67;;;12.70;;
20456;SDS011;10387;51.102;6.848;2023-04-06T09:58:16;17.13;;;13.40;;
20456;SDS011;10387;51.102;6.848;2023-04-06T10:00:53;18.40;;;13.63;;
20456;SDS011;10387;51.102;6.848;2023-04-06T10:06:10;21.00;;;13.57;;
20456;SDS011;10387;51.102;6.848;2023-04-06T10:08:37;18.63;;;12.80;;
20456;SDS011;10387;51.102;6.848;2023-04-06T10:11:05;17.97;;;13.03;;
20456;SDS011;10387;51.102;6.848;2023-04-06T10:13:32;15.57;;;12.83;;
20456;SDS011;10387;51.102;6.848;2023-04-06T10:15:58;19.33;;;13.90;;
20456;SDS011;10387;51.102;6.848;2023-04-06T10:18:26;17.40;;;13.33;;
20456;SDS011;10387;51.102;6.848;2023-04-06T10:21:04;17.77;;;13.00;;
20456;SDS011;10387;51.102;6.848;2023-04-06T10:26:01;19.27;;;13.07;;
20456;SDS011;10387;51.102;6.848;2023-04-06T10:28:31;19.30;;;14.37;;
20456;SDS011;10387;51.102;6.848;2023-04-06T10:30:59;17.57;;;13.47;;
20456;SDS011;10387;51.102;6.848;2023-04-06T10:33:25;17.77;;;13.33;;
20456;SDS011;10387;51.102;6.848;2023-04-06T10:35:51;21.00;;;13.90;;
20456;SDS011;10387;51.102;6.848;2023-04-06T10:38:18;19.37;;;14.57;;
20456;SDS011;10387;51.102;6.848;2023-04-06T10:40:47;17.93;;;13.97;;
20456;SDS011;10387;51.102;6.848;2023-04-06T10:43:17;19.27;;;14.20;;
20456;SDS011;10387;51.102;6.848;2023-04-06T10:45:44;19.20;;;13.77;;
20456;SDS011;10387;51.102;6.848;2023-04-06T10:48:14;19.57;;;14.13;;
20456;SDS011;10387;51.102;6.848;2023-04-06T10:50:41;19.40;;;14.50;;
20456;SDS011;10387;51.102;6.848;2023-04-06T10:53:08;17.27;;;13.10;;
20456;SDS011;10387;51.102;6.848;2023-04-06T10:55:34;16.57;;;12.30;;
20456;SDS011;10387;51.102;6.848;2023-04-06T10:58:07;18.00;;;13.33;;
20456;SDS011;10387;51.102;6.848;2023-04-06T11:00:35;17.70;;;13.50;;
20456;SDS011;10387;51.102;6.848;2023-04-06T11:03:01;18.47;;;14.17;;
20456;SDS011;10387;51.102;6.848;2023-04-06T11:05:27;19.10;;;14.23;;
20456;SDS011;10387;51.102;6.848;2023-04-06T11:07:53;19.23;;;13.70;;
20456;SDS011;10387;51.102;6.848;2023-04-06T11:10:23;19.60;;;14.13;;
20456;SDS011;10387;51.102;6.848;2023-04-06T11:12:55;16.43;;;12.93;;
20456;SDS011;10387;51.102;6.848;2023-04-06T11:15:22;19.30;;;14.57;;
20456;SDS011;10387;51.102;6.848;2023-04-06T11:17:48;18.23;;;14.47;;
20456;SDS011;10387;51.102;6.848;2023-04-06T11:20:15;20.57;;;14.57;;
20456;SDS011;10387;51.102;6.848;2023-04-06T11:22:49;18.73;;;14.07;;
20456;SDS011;10387;51.102;6.848;2023-04-06T11:25:15;17.87;;;12.90;;
20456;SDS011;10387;51.102;6.848;2023-04-06T11:27:42;18.33;;;13.50;;
20456;SDS011;10387;51.102;6.848;2023-04-06T11:30:09;18.10;;;13.50;;
20456;SDS011;10387;51.102;6.848;2023-04-06T11:32:44;17.60;;;13.43;;
20456;SDS011;10387;51.102;6.848;2023-04-06T11:35:21;17.60;;;12.87;;
20456;SDS011;10387;51.102;6.848;2023-04-06T11:37:50;18.10;;;13.27;;
20456;SDS011;10387;51.102;6.848;2023-04-06T11:40:20;21.57;;;14.23;;
20456;SDS011;10387;51.102;6.848;2023-04-06T11:42:53;19.57;;;14.03;;
20456;SDS011;10387;51.102;6.848;2023-04-06T11:45:20;18.60;;;14.47;;
20456;SDS011;10387;51.102;6.848;2023-04-06T11:47:54;19.03;;;14.13;;
20456;SDS011;10387;51.102;6.848;2023-04-06T11:50:20;19.70;;;14.13;;
20456;SDS011;10387;51.102;6.848;2023-04-06T11:52:47;19.13;;;13.37;;
20456;SDS011;10387;51.102;6.848;2023-04-06T11:55:23;20.07;;;14.13;;
20456;SDS011;10387;51.102;6.848;2023-04-06T11:57:49;18.70;;;13.80;;
20456;SDS011;10387;51.102;6.848;2023-04-06T12:00:16;18.57;;;13.33;;
20456;SDS011;10387;51.102;6.848;2023-04-06T12:02:46;19.43;;;12.87;;
20456;SDS011;10387;51.102;6.848;2023-04-06T12:05:12;22.27;;;14.10;;
20456;SDS011;10387;51.102;6.848;2023-04-06T12:07:39;20.70;;;13.93;;
20456;SDS011;10387;51.102;6.848;2023-04-06T12:10:05;17.67;;;13.50;;
20456;SDS011;10387;51.102;6.848;2023-04-06T12:12:31;17.80;;;13.10;;
20456;SDS011;10387;51.102;6.848;2023-04-06T12:14:58;19.20;;;13.00;;
20456;SDS011;10387;51.102;6.848;2023-04-06T12:17:24;19.03;;;13.47;;
20456;SDS011;10387;51.102;6.848;2023-04-06T12:19:51;17.97;;;13.23;;
20456;SDS011;10387;51.102;6.848;2023-04-06T12:22:17;17.13;;;12.13;;
20456;SDS011;10387;51.102;6.848;2023-04-06T12:24:44;17.53;;;12.93;;
20456;SDS011;10387;51.102;6.848;2023-04-06T12:27:10;18.40;;;13.77;;
20456;SDS011;10387;51.102;6.848;2023-04-06T12:29:37;18.57;;;12.77;;
20456;SDS011;10387;51.102;6.848;2023-04-06T12:32:03;16.50;;;12.83;;
20456;SDS011;10387;51.102;6.848;2023-04-06T12:34:31;16.23;;;12.33;;
20456;SDS011;10387;51.102;6.848;2023-04-06T12:36:57;17.20;;;12.63;;
20456;SDS011;10387;51.102;6.848;2023-04-06T12:39:23;17.17;;;13.50;;
20456;SDS011;10387;51.102;6.848;2023-04-06T12:41:50;16.27;;;12.47;;
20456;SDS011;10387;51.102;6.848;2023-04-06T12:44:17;17.57;;;12.00;;
20456;SDS011;10387;51.102;6.848;2023-04-06T12:46:43;15.87;;;11.23;;
20456;SDS011;10387;51.102;6.848;2023-04-06T12:49:10;16.50;;;11.20;;
20456;SDS011;10387;51.102;6.848;2023-04-06T12:51:36;16.13;;;11.80;;
20456;SDS011;10387;51.102;6.848;2023-04-06T12:54:02;15.07;;;11.17;;
20456;SDS011;10387;51.102;6.848;2023-04-06T12:56:28;15.57;;;11.80;;
20456;SDS011;10387;51.102;6.848;2023-04-06T12:58:56;15.00;;;11.17;;
20456;SDS011;10387;51.102;6.848;2023-04-06T13:01:22;16.33;;;10.40;;
20456;SDS011;10387;51.102;6.848;2023-04-06T13:03:48;14.83;;;10.87;;
20456;SDS011;10387;51.102;6.848;2023-04-06T13:06:15;13.87;;;10.40;;
20456;SDS011;10387;51.102;6.848;2023-04-06T13:08:41;15.37;;;10.60;;
20456;SDS011;10387;51.102;6.848;2023-04-06T13:11:07;11.87;;;10.07;;
20456;SDS011;10387;51.102;6.848;2023-04-06T13:13:34;13.77;;;9.77;;
20456;SDS011;10387;51.102;6.848;2023-04-06T13:16:02;10.73;;;8.87;;
20456;SDS011;10387;51.102;6.848;2023-04-06T13:18:29;9.30;;;7.93;;
20456;SDS011;10387;51.102;6.848;2023-04-06T13:20:56;9.10;;;7.87;;
20456;SDS011;10387;51.102;6.848;2023-04-06T13:23:23;9.27;;;7.40;;
20456;SDS011;10387;51.102;6.848;2023-04-06T13:28:25;9.80;;;8.00;;
20456;SDS011;10387;51.102;6.848;2023-04-06T13:30:52;9.93;;;8.00;;
20456;SDS011;10387;51.102;6.848;2023-04-06T13:33:18;11.27;;;8.03;;
20456;SDS011;10387;51.102;6.848;2023-04-06T13:35:45;9.57;;;8.20;;
20456;SDS011;10387;51.102;6.848;2023-04-06T13:38:11;10.97;;;7.77;;
20456;SDS011;10387;51.102;6.848;2023-04-06T13:40:41;8.37;;;7.50;;
20456;SDS011;10387;51.102;6.848;2023-04-06T13:43:07;9.23;;;7.27;;
20456;SDS011;10387;51.102;6.848;2023-04-06T13:45:33;9.60;;;7.27;;
20456;SDS011;10387;51.102;6.848;2023-04-06T13:48:00;8.07;;;7.27;;
20456;SDS011;10387;51.102;6.848;2023-04-06T13:50:26;10.60;;;8.20;;
20456;SDS011;10387;51.102;6.848;2023-04-06T13:52:52;8.93;;;7.67;;
20456;SDS011;10387;51.102;6.848;2023-04-06T13:55:18;8.77;;;7.13;;
20456;SDS011;10387;51.102;6.848;2023-04-06T13:57:44;8.07;;;6.97;;
20456;SDS011;10387;51.102;6.848;2023-04-06T14:00:11;7.87;;;5.90;;
20456;SDS011;10387;51.102;6.848;2023-04-06T14:02:38;9.00;;;6.77;;
20456;SDS011;10387;51.102;6.848;2023-04-06T14:05:04;9.37;;;7.63;;
20456;SDS011;10387;51.102;6.848;2023-04-06T14:07:31;8.37;;;7.43;;
20456;SDS011;10387;51.102;6.848;2023-04-06T14:09:57;10.57;;;8.10;;
20456;SDS011;10387;51.102;6.848;2023-04-06T14:12:23;9.27;;;7.40;;
20456;SDS011;10387;51.102;6.848;2023-04-06T14:14:49;11.73;;;8.57;;
20456;SDS011;10387;51.102;6.848;2023-04-06T14:17:15;10.07;;;7.83;;
20456;SDS011;10387;51.102;6.848;2023-04-06T14:19:41;10.13;;;7.87;;
20456;SDS011;10387;51.102;6.848;2023-04-06T14:22:08;9.63;;;8.40;;
20456;SDS011;10387;51.102;6.848;2023-04-06T14:24:34;8.77;;;7.63;;
20456;SDS011;10387;51.102;6.848;2023-04-06T14:27:01;10.60;;;7.83;;
20456;SDS011;10387;51.102;6.848;2023-04-06T14:29:27;11.77;;;8.80;;
20456;SDS011;10387;51.102;6.848;2023-04-06T14:31:53;14.23;;;9.57;;
20456;SDS011;10387;51.102;6.848;2023-04-06T14:34:28;14.07;;;9.93;;
20456;SDS011;10387;51.102;6.848;2023-04-06T14:36:54;13.33;;;10.10;;
20456;SDS011;10387;51.102;6.848;2023-04-06T14:39:20;16.93;;;10.27;;